sensor_id;sensor_type;location;lat;lon;timestamp;temperature;humidity
11246;DHT22;59870;50.106;8.580;2023-03-31T00:01:11;16.00;89.80
11246;DHT22;59870;50.106;8.580;2023-03-31T00:03:39;16.00;89.90
11246;DHT22;59870;50.106;8.580;2023-03-31T00:06:12;16.00;90.20
11246;DHT22;59870;50.106;8.580;2023-03-31T00:08:44;16.00;89.90
11246;DHT22;59870;50.106;8.580;2023-03-31T00:11:11;16.00;90.10
11246;DHT22;59870;50.106;8.580;2023-03-31T00:13:39;16.00;89.90
11246;DHT22;59870;50.106;8.580;2023-03-31T00:16:08;16.00;90.20
11246;DHT22;59870;50.106;8.580;2023-03-31T00:18:36;16.00;90.50
11246;DHT22;59870;50.106;8.580;2023-03-31T00:21:10;16.00;90.40
11246;DHT22;59870;50.106;8.580;2023-03-31T00:23:41;16.30;90.60
11246;DHT22;59870;50.106;8.580;2023-03-31T00:26:08;16.00;90.80
11246;DHT22;59870;50.106;8.580;2023-03-31T00:28:36;15.90;90.90
11246;DHT22;59870;50.106;8.580;2023-03-31T00:31:03;15.90;90.90
11246;DHT22;59870;50.106;8.580;2023-03-31T00:33:30;15.90;91.10
11246;DHT22;59870;50.106;8.580;2023-03-31T00:35:58;15.90;91.30
11246;DHT22;59870;50.106;8.580;2023-03-31T00:38:28;15.90;91.50
11246;DHT22;59870;50.106;8.580;2023-03-31T00:40:56;16.40;91.50
11246;DHT22;59870;50.106;8.580;2023-03-31T00:43:30;15.90;91.30
11246;DHT22;59870;50.106;8.580;2023-03-31T00:46:17;15.90;91.40
11246;DHT22;59870;50.106;8.580;2023-03-31T00:48:54;15.80;91.50
11246;DHT22;59870;50.106;8.580;2023-03-31T00:51:26;15.80;92.00
11246;DHT22;59870;50.106;8.580;2023-03-31T00:54:00;15.80;91.90
11246;DHT22;59870;50.106;8.580;2023-03-31T00:56:30;15.70;91.80
11246;DHT22;59870;50.106;8.580;2023-03-31T00:59:01;15.80;91.90
11246;DHT22;59870;50.106;8.580;2023-03-31T01:01:30;15.70;92.00
11246;DHT22;59870;50.106;8.580;2023-03-31T01:03:57;15.70;92.00
11246;DHT22;59870;50.106;8.580;2023-03-31T01:06:25;15.70;92.00
11246;DHT22;59870;50.106;8.580;2023-03-31T01:08:56;15.60;92.30
11246;DHT22;59870;50.106;8.580;2023-03-31T01:11:26;15.60;92.20
11246;DHT22;59870;50.106;8.580;2023-03-31T01:13:56;16.20;92.60
11246;DHT22;59870;50.106;8.580;2023-03-31T01:16:24;15.60;92.40
11246;DHT22;59870;50.106;8.580;2023-03-31T01:18:52;15.60;92.40
11246;DHT22;59870;50.106;8.580;2023-03-31T01:24:58;15.50;92.40
11246;DHT22;59870;50.106;8.580;2023-03-31T01:27:49;15.50;92.40
11246;DHT22;59870;50.106;8.580;2023-03-31T01:33:23;15.50;92.40
11246;DHT22;59870;50.106;8.580;2023-03-31T01:36:21;15.50;92.50
11246;DHT22;59870;50.106;8.580;2023-03-31T01:39:13;15.50;92.40
11246;DHT22;59870;50.106;8.580;2023-03-31T01:44:32;15.40;92.50
11246;DHT22;59870;50.106;8.580;2023-03-31T01:47:13;15.40;92.50
11246;DHT22;59870;50.106;8.580;2023-03-31T01:50:28;15.40;92.50
11246;DHT22;59870;50.106;8.580;2023-03-31T01:58:52;15.30;92.60
11246;DHT22;59870;50.106;8.580;2023-03-31T02:01:36;15.20;92.70
11246;DHT22;59870;50.106;8.580;2023-03-31T02:04:12;15.20;92.80
11246;DHT22;59870;50.106;8.580;2023-03-31T02:06:44;15.10;92.90
11246;DHT22;59870;50.106;8.580;2023-03-31T02:09:16;15.10;92.90
11246;DHT22;59870;50.106;8.580;2023-03-31T02:11:46;15.10;93.10
11246;DHT22;59870;50.106;8.580;2023-03-31T02:14:20;15.00;93.10
11246;DHT22;59870;50.106;8.580;2023-03-31T02:16:51;15.00;93.20
11246;DHT22;59870;50.106;8.580;2023-03-31T02:19:28;15.40;93.40
11246;DHT22;59870;50.106;8.580;2023-03-31T02:21:58;15.00;93.20
11246;DHT22;59870;50.106;8.580;2023-03-31T02:24:27;14.90;93.20
11246;DHT22;59870;50.106;8.580;2023-03-31T02:27:09;14.90;93.20
11246;DHT22;59870;50.106;8.580;2023-03-31T02:29:38;14.80;93.20
11246;DHT22;59870;50.106;8.580;2023-03-31T02:34:38;14.80;93.40
11246;DHT22;59870;50.106;8.580;2023-03-31T02:37:05;14.80;93.40
11246;DHT22;59870;50.106;8.580;2023-03-31T02:39:35;14.80;93.40
11246;DHT22;59870;50.106;8.580;2023-03-31T02:42:05;14.80;93.50
11246;DHT22;59870;50.106;8.580;2023-03-31T02:44:36;14.80;93.60
11246;DHT22;59870;50.106;8.580;2023-03-31T02:47:07;14.80;93.60
11246;DHT22;59870;50.106;8.580;2023-03-31T02:49:37;15.40;93.90
11246;DHT22;59870;50.106;8.580;2023-03-31T02:55:17;14.70;93.60
11246;DHT22;59870;50.106;8.580;2023-03-31T03:01:46;14.70;93.90
11246;DHT22;59870;50.106;8.580;2023-03-31T03:06:45;14.70;94.10
11246;DHT22;59870;50.106;8.580;2023-03-31T03:15:05;14.70;94.00
11246;DHT22;59870;50.106;8.580;2023-03-31T03:17:40;14.80;94.00
11246;DHT22;59870;50.106;8.580;2023-03-31T03:20:08;14.70;93.80
11246;DHT22;59870;50.106;8.580;2023-03-31T03:22:38;14.70;93.80
11246;DHT22;59870;50.106;8.580;2023-03-31T03:25:08;14.70;93.80
11246;DHT22;59870;50.106;8.580;2023-03-31T03:27:37;14.70;93.80
11246;DHT22;59870;50.106;8.580;2023-03-31T03:30:08;14.70;93.80
11246;DHT22;59870;50.106;8.580;2023-03-31T03:32:37;14.80;93.80
11246;DHT22;59870;50.106;8.580;2023-03-31T03:35:05;14.70;94.00
11246;DHT22;59870;50.106;8.580;2023-03-31T03:37:33;14.70;94.10
11246;DHT22;59870;50.106;8.580;2023-03-31T03:40:00;14.70;94.10
11246;DHT22;59870;50.106;8.580;2023-03-31T03:42:28;14.70;94.20
11246;DHT22;59870;50.106;8.580;2023-03-31T03:44:55;14.70;94.20
11246;DHT22;59870;50.106;8.580;2023-03-31T03:47:22;14.70;94.20
11246;DHT22;59870;50.106;8.580;2023-03-31T03:49:50;14.70;94.00
11246;DHT22;59870;50.106;8.580;2023-03-31T03:52:17;14.70;94.00
11246;DHT22;59870;50.106;8.580;2023-03-31T03:54:44;14.70;93.80
11246;DHT22;59870;50.106;8.580;2023-03-31T03:57:12;14.70;93.60
11246;DHT22;59870;50.106;8.580;2023-03-31T03:59:39;14.70;93.90
11246;DHT22;59870;50.106;8.580;2023-03-31T04:02:07;14.70;94.00
11246;DHT22;59870;50.106;8.580;2023-03-31T04:04:34;14.70;94.00
11246;DHT22;59870;50.106;8.580;2023-03-31T04:07:01;14.80;94.40
11246;DHT22;59870;50.106;8.580;2023-03-31T04:09:29;14.70;94.00
11246;DHT22;59870;50.106;8.580;2023-03-31T04:11:57;14.70;94.10
11246;DHT22;59870;50.106;8.580;2023-03-31T04:14:24;14.70;94.10
11246;DHT22;59870;50.106;8.580;2023-03-31T04:16:52;14.80;94.30
11246;DHT22;59870;50.106;8.580;2023-03-31T04:19:23;14.70;94.10
11246;DHT22;59870;50.106;8.580;2023-03-31T04:21:52;14.80;94.20
11246;DHT22;59870;50.106;8.580;2023-03-31T04:24:25;14.70;94.00
11246;DHT22;59870;50.106;8.580;2023-03-31T04:26:58;15.40;94.40
11246;DHT22;59870;50.106;8.580;2023-03-31T04:29:26;15.20;94.20
11246;DHT22;59870;50.106;8.580;2023-03-31T04:31:55;14.70;94.00
11246;DHT22;59870;50.106;8.580;2023-03-31T04:34:26;14.70;94.00
11246;DHT22;59870;50.106;8.580;2023-03-31T04:37:02;14.70;94.10
11246;DHT22;59870;50.106;8.580;2023-03-31T04:39:30;14.70;94.20
11246;DHT22;59870;50.106;8.580;2023-03-31T04:41:59;14.70;94.10
11246;DHT22;59870;50.106;8.580;2023-03-31T04:44:27;14.70;94.10
11246;DHT22;59870;50.106;8.580;2023-03-31T04:46:55;14.70;94.10
11246;DHT22;59870;50.106;8.580;2023-03-31T04:49:22;15.10;94.40
11246;DHT22;59870;50.106;8.580;2023-03-31T04:51:50;14.70;94.20
11246;DHT22;59870;50.106;8.580;2023-03-31T04:54:17;14.70;94.30
11246;DHT22;59870;50.106;8.580;2023-03-31T04:56:44;14.70;94.10
11246;DHT22;59870;50.106;8.580;2023-03-31T04:59:12;15.00;94.20
11246;DHT22;59870;50.106;8.580;2023-03-31T05:01:40;14.70;94.00
11246;DHT22;59870;50.106;8.580;2023-03-31T05:04:12;14.70;94.20
11246;DHT22;59870;50.106;8.580;2023-03-31T05:06:39;14.70;94.30
11246;DHT22;59870;50.106;8.580;2023-03-31T05:09:07;14.70;94.30
11246;DHT22;59870;50.106;8.580;2023-03-31T05:11:35;14.70;94.40
11246;DHT22;59870;50.106;8.580;2023-03-31T05:14:04;14.60;94.40
11246;DHT22;59870;50.106;8.580;2023-03-31T05:16:32;14.60;94.50
11246;DHT22;59870;50.106;8.580;2023-03-31T05:19:02;14.60;94.60
11246;DHT22;59870;50.106;8.580;2023-03-31T05:21:29;14.60;94.60
11246;DHT22;59870;50.106;8.580;2023-03-31T05:23:57;14.60;94.70
11246;DHT22;59870;50.106;8.580;2023-03-31T05:26:25;14.60;94.70
11246;DHT22;59870;50.106;8.580;2023-03-31T05:28:53;14.60;94.70
11246;DHT22;59870;50.106;8.580;2023-03-31T05:31:21;14.60;94.80
11246;DHT22;59870;50.106;8.580;2023-03-31T05:33:48;14.60;94.80
11246;DHT22;59870;50.106;8.580;2023-03-31T05:36:16;14.60;94.80
11246;DHT22;59870;50.106;8.580;2023-03-31T05:38:45;14.60;94.70
11246;DHT22;59870;50.106;8.580;2023-03-31T05:41:14;15.20;95.20
11246;DHT22;59870;50.106;8.580;2023-03-31T05:43:43;14.60;94.70
11246;DHT22;59870;50.106;8.580;2023-03-31T05:46:10;14.60;94.60
11246;DHT22;59870;50.106;8.580;2023-03-31T05:48:38;14.60;94.60
11246;DHT22;59870;50.106;8.580;2023-03-31T05:51:05;14.60;94.50
11246;DHT22;59870;50.106;8.580;2023-03-31T05:53:32;14.60;94.70
11246;DHT22;59870;50.106;8.580;2023-03-31T05:56:03;14.60;94.80
11246;DHT22;59870;50.106;8.580;2023-03-31T05:58:36;14.60;94.70
11246;DHT22;59870;50.106;8.580;2023-03-31T06:01:12;14.60;94.70
11246;DHT22;59870;50.106;8.580;2023-03-31T06:03:43;14.60;94.80
11246;DHT22;59870;50.106;8.580;2023-03-31T06:06:11;14.60;94.60
11246;DHT22;59870;50.106;8.580;2023-03-31T06:08:44;14.60;94.70
11246;DHT22;59870;50.106;8.580;2023-03-31T06:11:15;14.60;94.80
11246;DHT22;59870;50.106;8.580;2023-03-31T06:13:43;14.60;94.80
11246;DHT22;59870;50.106;8.580;2023-03-31T06:16:11;14.60;94.90
11246;DHT22;59870;50.106;8.580;2023-03-31T06:18:40;14.60;95.00
11246;DHT22;59870;50.106;8.580;2023-03-31T06:21:12;14.60;94.90
11246;DHT22;59870;50.106;8.580;2023-03-31T06:23:39;14.70;95.00
11246;DHT22;59870;50.106;8.580;2023-03-31T06:26:07;14.60;95.00
11246;DHT22;59870;50.106;8.580;2023-03-31T06:28:35;14.80;95.10
11246;DHT22;59870;50.106;8.580;2023-03-31T06:31:06;14.60;95.10
11246;DHT22;59870;50.106;8.580;2023-03-31T06:33:34;14.60;95.20
11246;DHT22;59870;50.106;8.580;2023-03-31T06:36:01;14.60;95.20
11246;DHT22;59870;50.106;8.580;2023-03-31T06:38:33;14.50;95.20
11246;DHT22;59870;50.106;8.580;2023-03-31T06:41:01;14.50;95.30
11246;DHT22;59870;50.106;8.580;2023-03-31T06:43:28;14.50;95.20
11246;DHT22;59870;50.106;8.580;2023-03-31T06:45:56;14.50;95.20
11246;DHT22;59870;50.106;8.580;2023-03-31T06:48:24;14.50;95.10
11246;DHT22;59870;50.106;8.580;2023-03-31T06:50:54;14.50;95.20
11246;DHT22;59870;50.106;8.580;2023-03-31T06:53:21;14.50;95.50
11246;DHT22;59870;50.106;8.580;2023-03-31T06:55:49;14.50;95.50
11246;DHT22;59870;50.106;8.580;2023-03-31T06:58:17;14.50;95.40
11246;DHT22;59870;50.106;8.580;2023-03-31T07:00:44;14.50;95.30
11246;DHT22;59870;50.106;8.580;2023-03-31T07:03:14;14.50;95.40
11246;DHT22;59870;50.106;8.580;2023-03-31T07:05:50;14.50;95.40
11246;DHT22;59870;50.106;8.580;2023-03-31T07:08:18;14.50;95.60
11246;DHT22;59870;50.106;8.580;2023-03-31T07:10:47;14.50;95.40
11246;DHT22;59870;50.106;8.580;2023-03-31T07:13:17;14.50;95.60
11246;DHT22;59870;50.106;8.580;2023-03-31T07:15:49;14.50;95.60
11246;DHT22;59870;50.106;8.580;2023-03-31T07:18:17;14.50;95.60
11246;DHT22;59870;50.106;8.580;2023-03-31T07:20:48;14.50;95.80
11246;DHT22;59870;50.106;8.580;2023-03-31T07:23:19;14.50;95.80
11246;DHT22;59870;50.106;8.580;2023-03-31T07:25:48;14.30;95.80
11246;DHT22;59870;50.106;8.580;2023-03-31T07:28:16;14.60;96.00
11246;DHT22;59870;50.106;8.580;2023-03-31T07:30:44;14.50;96.10
11246;DHT22;59870;50.106;8.580;2023-03-31T07:33:12;14.60;96.20
11246;DHT22;59870;50.106;8.580;2023-03-31T07:35:40;14.50;96.40
11246;DHT22;59870;50.106;8.580;2023-03-31T07:38:09;14.50;96.40
11246;DHT22;59870;50.106;8.580;2023-03-31T07:40:37;14.50;96.50
11246;DHT22;59870;50.106;8.580;2023-03-31T07:43:05;14.50;96.50
11246;DHT22;59870;50.106;8.580;2023-03-31T07:45:33;14.50;96.10
11246;DHT22;59870;50.106;8.580;2023-03-31T07:48:01;14.50;96.40
11246;DHT22;59870;50.106;8.580;2023-03-31T07:50:29;14.90;96.60
11246;DHT22;59870;50.106;8.580;2023-03-31T07:52:59;14.40;96.50
11246;DHT22;59870;50.106;8.580;2023-03-31T07:55:27;14.40;96.60
11246;DHT22;59870;50.106;8.580;2023-03-31T07:58:00;14.50;96.90
11246;DHT22;59870;50.106;8.580;2023-03-31T08:00:29;14.40;97.00
11246;DHT22;59870;50.106;8.580;2023-03-31T08:02:57;14.50;97.20
11246;DHT22;59870;50.106;8.580;2023-03-31T08:05:25;15.00;97.80
11246;DHT22;59870;50.106;8.580;2023-03-31T08:07:54;14.70;98.00
11246;DHT22;59870;50.106;8.580;2023-03-31T08:10:24;14.80;97.60
11246;DHT22;59870;50.106;8.580;2023-03-31T08:12:58;14.90;97.80
11246;DHT22;59870;50.106;8.580;2023-03-31T08:15:27;15.00;97.20
11246;DHT22;59870;50.106;8.580;2023-03-31T08:17:56;15.10;97.30
11246;DHT22;59870;50.106;8.580;2023-03-31T08:20:24;15.20;97.10
11246;DHT22;59870;50.106;8.580;2023-03-31T08:22:52;15.40;97.40
11246;DHT22;59870;50.106;8.580;2023-03-31T08:25:19;16.10;97.40
11246;DHT22;59870;50.106;8.580;2023-03-31T08:27:47;15.60;97.00
11246;DHT22;59870;50.106;8.580;2023-03-31T08:30:18;15.80;97.10
11246;DHT22;59870;50.106;8.580;2023-03-31T08:32:46;16.70;97.60
11246;DHT22;59870;50.106;8.580;2023-03-31T08:35:13;16.30;97.20
11246;DHT22;59870;50.106;8.580;2023-03-31T08:37:41;16.80;97.30
11246;DHT22;59870;50.106;8.580;2023-03-31T08:40:15;17.10;96.40
11246;DHT22;59870;50.106;8.580;2023-03-31T08:42:48;17.30;95.30
11246;DHT22;59870;50.106;8.580;2023-03-31T08:47:45;17.60;93.70
11246;DHT22;59870;50.106;8.580;2023-03-31T08:50:20;17.70;93.00
11246;DHT22;59870;50.106;8.580;2023-03-31T08:52:58;18.10;93.10
11246;DHT22;59870;50.106;8.580;2023-03-31T08:55:44;17.80;92.80
11246;DHT22;59870;50.106;8.580;2023-03-31T09:01:23;17.90;92.60
11246;DHT22;59870;50.106;8.580;2023-03-31T09:13:22;17.90;92.90
11246;DHT22;59870;50.106;8.580;2023-03-31T09:16:01;18.00;93.30
11246;DHT22;59870;50.106;8.580;2023-03-31T09:18:34;18.20;93.30
11246;DHT22;59870;50.106;8.580;2023-03-31T09:21:35;18.50;93.40
11246;DHT22;59870;50.106;8.580;2023-03-31T09:24:09;18.70;92.70
11246;DHT22;59870;50.106;8.580;2023-03-31T09:26:53;18.90;91.70
11246;DHT22;59870;50.106;8.580;2023-03-31T09:29:52;19.00;91.90
11246;DHT22;59870;50.106;8.580;2023-03-31T09:32:20;19.10;91.00
11246;DHT22;59870;50.106;8.580;2023-03-31T09:34:55;19.10;90.30
11246;DHT22;59870;50.106;8.580;2023-03-31T09:37:27;19.30;90.00
11246;DHT22;59870;50.106;8.580;2023-03-31T09:39:59;19.20;90.30
11246;DHT22;59870;50.106;8.580;2023-03-31T09:42:27;19.20;89.80
11246;DHT22;59870;50.106;8.580;2023-03-31T09:44:55;19.30;89.40
11246;DHT22;59870;50.106;8.580;2023-03-31T09:47:32;19.30;89.50
11246;DHT22;59870;50.106;8.580;2023-03-31T09:50:06;19.90;90.70
11246;DHT22;59870;50.106;8.580;2023-03-31T09:52:39;19.50;86.80
11246;DHT22;59870;50.106;8.580;2023-03-31T09:55:36;19.50;88.90
11246;DHT22;59870;50.106;8.580;2023-03-31T09:58:15;19.60;89.50
11246;DHT22;59870;50.106;8.580;2023-03-31T10:01:04;19.60;88.80
11246;DHT22;59870;50.106;8.580;2023-03-31T10:03:53;19.60;88.60
11246;DHT22;59870;50.106;8.580;2023-03-31T10:06:22;19.60;86.70
11246;DHT22;59870;50.106;8.580;2023-03-31T10:09:03;20.20;84.40
11246;DHT22;59870;50.106;8.580;2023-03-31T10:11:31;19.60;86.60
11246;DHT22;59870;50.106;8.580;2023-03-31T10:14:05;20.30;84.50
11246;DHT22;59870;50.106;8.580;2023-03-31T10:16:46;19.10;85.00
11246;DHT22;59870;50.106;8.580;2023-03-31T10:19:26;19.50;85.80
11246;DHT22;59870;50.106;8.580;2023-03-31T10:24:24;19.40;82.90
11246;DHT22;59870;50.106;8.580;2023-03-31T10:26:55;19.20;82.80
11246;DHT22;59870;50.106;8.580;2023-03-31T10:29:30;19.10;85.50
11246;DHT22;59870;50.106;8.580;2023-03-31T10:32:04;19.10;87.10
11246;DHT22;59870;50.106;8.580;2023-03-31T10:34:39;18.60;86.80
11246;DHT22;59870;50.106;8.580;2023-03-31T10:37:18;18.30;85.40
11246;DHT22;59870;50.106;8.580;2023-03-31T10:39:46;18.00;85.50
11246;DHT22;59870;50.106;8.580;2023-03-31T10:42:21;17.70;85.00
11246;DHT22;59870;50.106;8.580;2023-03-31T10:44:50;17.40;86.40
11246;DHT22;59870;50.106;8.580;2023-03-31T10:47:38;17.20;86.90
11246;DHT22;59870;50.106;8.580;2023-03-31T10:52:46;16.80;87.60
11246;DHT22;59870;50.106;8.580;2023-03-31T10:55:25;17.00;88.00
11246;DHT22;59870;50.106;8.580;2023-03-31T10:57:57;16.80;87.80
11246;DHT22;59870;50.106;8.580;2023-03-31T11:00:54;16.30;88.20
11246;DHT22;59870;50.106;8.580;2023-03-31T11:03:41;16.10;89.50
11246;DHT22;59870;50.106;8.580;2023-03-31T11:06:24;16.10;90.40
11246;DHT22;59870;50.106;8.580;2023-03-31T11:15:12;16.10;91.10
11246;DHT22;59870;50.106;8.580;2023-03-31T11:18:02;16.10;91.10
11246;DHT22;59870;50.106;8.580;2023-03-31T11:20:44;16.20;91.40
11246;DHT22;59870;50.106;8.580;2023-03-31T11:23:41;16.40;91.30
11246;DHT22;59870;50.106;8.580;2023-03-31T11:29:33;16.60;91.50
11246;DHT22;59870;50.106;8.580;2023-03-31T11:40:29;17.30;90.70
11246;DHT22;59870;50.106;8.580;2023-03-31T11:43:09;17.40;91.00
11246;DHT22;59870;50.106;8.580;2023-03-31T11:45:43;17.60;90.10
11246;DHT22;59870;50.106;8.580;2023-03-31T11:51:20;17.90;90.00
11246;DHT22;59870;50.106;8.580;2023-03-31T11:53:53;18.10;90.40
11246;DHT22;59870;50.106;8.580;2023-03-31T11:56:32;18.20;89.30
11246;DHT22;59870;50.106;8.580;2023-03-31T11:59:02;18.30;90.70
11246;DHT22;59870;50.106;8.580;2023-03-31T12:01:50;17.90;89.60
11246;DHT22;59870;50.106;8.580;2023-03-31T12:04:37;18.70;90.20
11246;DHT22;59870;50.106;8.580;2023-03-31T12:07:30;18.60;89.40
11246;DHT22;59870;50.106;8.580;2023-03-31T12:10:18;18.60;88.90
11246;DHT22;59870;50.106;8.580;2023-03-31T12:13:00;18.60;87.90
11246;DHT22;59870;50.106;8.580;2023-03-31T12:15:34;18.70;88.50
11246;DHT22;59870;50.106;8.580;2023-03-31T12:18:14;18.50;88.10
11246;DHT22;59870;50.106;8.580;2023-03-31T12:21:00;18.40;90.30
11246;DHT22;59870;50.106;8.580;2023-03-31T12:23:34;18.40;90.70
11246;DHT22;59870;50.106;8.580;2023-03-31T12:28:58;18.40;90.20
11246;DHT22;59870;50.106;8.580;2023-03-31T12:31:28;18.40;90.20
11246;DHT22;59870;50.106;8.580;2023-03-31T12:34:12;18.40;86.50
11246;DHT22;59870;50.106;8.580;2023-03-31T12:40:03;18.20;86.50
11246;DHT22;59870;50.106;8.580;2023-03-31T12:43:10;17.90;86.10
11246;DHT22;59870;50.106;8.580;2023-03-31T12:45:49;17.70;87.90
11246;DHT22;59870;50.106;8.580;2023-03-31T12:48:36;17.60;88.70
11246;DHT22;59870;50.106;8.580;2023-03-31T12:57:11;17.40;89.30
11246;DHT22;59870;50.106;8.580;2023-03-31T12:59:42;17.30;89.60
11246;DHT22;59870;50.106;8.580;2023-03-31T13:02:23;17.30;90.40
11246;DHT22;59870;50.106;8.580;2023-03-31T13:04:51;17.30;90.30
11246;DHT22;59870;50.106;8.580;2023-03-31T13:12:27;17.40;90.90
11246;DHT22;59870;50.106;8.580;2023-03-31T13:15:03;17.40;90.30
11246;DHT22;59870;50.106;8.580;2023-03-31T13:17:36;17.40;90.50
11246;DHT22;59870;50.106;8.580;2023-03-31T13:20:21;17.50;90.10
11246;DHT22;59870;50.106;8.580;2023-03-31T13:22:59;17.60;90.40
11246;DHT22;59870;50.106;8.580;2023-03-31T13:30:51;17.90;90.40
11246;DHT22;59870;50.106;8.580;2023-03-31T13:33:50;18.30;90.40
11246;DHT22;59870;50.106;8.580;2023-03-31T13:51:12;18.20;80.30
11246;DHT22;59870;50.106;8.580;2023-03-31T13:57:04;18.20;78.80
11246;DHT22;59870;50.106;8.580;2023-03-31T14:00:06;18.10;77.30
11246;DHT22;59870;50.106;8.580;2023-03-31T14:07:57;18.10;78.80
11246;DHT22;59870;50.106;8.580;2023-03-31T14:13:14;18.10;78.20
11246;DHT22;59870;50.106;8.580;2023-03-31T14:15:55;18.10;79.00
11246;DHT22;59870;50.106;8.580;2023-03-31T14:18:27;18.10;80.00
11246;DHT22;59870;50.106;8.580;2023-03-31T14:23:54;18.10;79.60
11246;DHT22;59870;50.106;8.580;2023-03-31T14:29:38;18.20;80.80
11246;DHT22;59870;50.106;8.580;2023-03-31T14:35:42;18.30;80.10
11246;DHT22;59870;50.106;8.580;2023-03-31T14:38:17;18.30;80.20
11246;DHT22;59870;50.106;8.580;2023-03-31T14:40:52;18.30;80.00
11246;DHT22;59870;50.106;8.580;2023-03-31T14:43:25;18.30;79.40
11246;DHT22;59870;50.106;8.580;2023-03-31T14:46:03;18.40;79.80
11246;DHT22;59870;50.106;8.580;2023-03-31T14:48:33;18.40;80.00
11246;DHT22;59870;50.106;8.580;2023-03-31T14:51:02;18.40;79.10
11246;DHT22;59870;50.106;8.580;2023-03-31T14:53:35;18.50;79.00
11246;DHT22;59870;50.106;8.580;2023-03-31T14:56:19;19.20;79.90
11246;DHT22;59870;50.106;8.580;2023-03-31T14:58:49;18.50;78.60
11246;DHT22;59870;50.106;8.580;2023-03-31T15:01:28;18.50;78.90
11246;DHT22;59870;50.106;8.580;2023-03-31T15:03:56;18.60;79.10
11246;DHT22;59870;50.106;8.580;2023-03-31T15:06:24;19.10;79.40
11246;DHT22;59870;50.106;8.580;2023-03-31T15:08:55;18.50;79.30
11246;DHT22;59870;50.106;8.580;2023-03-31T15:11:28;18.80;81.30
11246;DHT22;59870;50.106;8.580;2023-03-31T15:13:57;19.10;84.80
11246;DHT22;59870;50.106;8.580;2023-03-31T15:16:37;18.40;85.60
11246;DHT22;59870;50.106;8.580;2023-03-31T15:19:15;18.70;86.20
11246;DHT22;59870;50.106;8.580;2023-03-31T15:21:46;18.50;85.60
11246;DHT22;59870;50.106;8.580;2023-03-31T15:24:20;18.10;82.90
11246;DHT22;59870;50.106;8.580;2023-03-31T15:26:57;18.00;82.70
11246;DHT22;59870;50.106;8.580;2023-03-31T15:29:48;17.90;83.40
11246;DHT22;59870;50.106;8.580;2023-03-31T15:32:29;17.80;84.70
11246;DHT22;59870;50.106;8.580;2023-03-31T15:34:58;17.70;84.70
11246;DHT22;59870;50.106;8.580;2023-03-31T15:37:46;18.10;86.00
11246;DHT22;59870;50.106;8.580;2023-03-31T15:40:19;17.60;85.80
11246;DHT22;59870;50.106;8.580;2023-03-31T15:42:48;17.60;86.30
11246;DHT22;59870;50.106;8.580;2023-03-31T15:45:54;17.60;85.10
11246;DHT22;59870;50.106;8.580;2023-03-31T15:48:34;18.30;86.80
11246;DHT22;59870;50.106;8.580;2023-03-31T15:56:36;17.50;84.40
11246;DHT22;59870;50.106;8.580;2023-03-31T15:59:04;17.50;84.50
11246;DHT22;59870;50.106;8.580;2023-03-31T16:01:36;17.50;84.90
11246;DHT22;59870;50.106;8.580;2023-03-31T16:04:11;17.40;85.40
11246;DHT22;59870;50.106;8.580;2023-03-31T16:07:03;17.50;85.40
11246;DHT22;59870;50.106;8.580;2023-03-31T16:09:54;17.40;84.70
11246;DHT22;59870;50.106;8.580;2023-03-31T16:12:30;17.50;84.80
11246;DHT22;59870;50.106;8.580;2023-03-31T16:15:08;17.50;84.00
11246;DHT22;59870;50.106;8.580;2023-03-31T16:18:07;17.50;83.80
11246;DHT22;59870;50.106;8.580;2023-03-31T16:20:39;17.50;84.70
11246;DHT22;59870;50.106;8.580;2023-03-31T16:23:17;18.00;86.20
11246;DHT22;59870;50.106;8.580;2023-03-31T16:25:46;17.50;86.50
11246;DHT22;59870;50.106;8.580;2023-03-31T16:28:19;17.50;87.60
11246;DHT22;59870;50.106;8.580;2023-03-31T16:30:49;17.40;87.50
11246;DHT22;59870;50.106;8.580;2023-03-31T16:33:18;17.40;88.70
11246;DHT22;59870;50.106;8.580;2023-03-31T16:35:51;17.40;89.40
11246;DHT22;59870;50.106;8.580;2023-03-31T16:38:21;17.30;90.00
11246;DHT22;59870;50.106;8.580;2023-03-31T16:40:51;17.80;89.60
11246;DHT22;59870;50.106;8.580;2023-03-31T16:43:27;17.30;88.80
11246;DHT22;59870;50.106;8.580;2023-03-31T16:45:57;17.20;88.30
11246;DHT22;59870;50.106;8.580;2023-03-31T16:48:26;17.20;88.90
11246;DHT22;59870;50.106;8.580;2023-03-31T16:50:56;17.10;88.90
11246;DHT22;59870;50.106;8.580;2023-03-31T16:53:26;17.70;89.80
11246;DHT22;59870;50.106;8.580;2023-03-31T16:55:54;17.00;89.40
11246;DHT22;59870;50.106;8.580;2023-03-31T16:58:23;17.00;89.10
11246;DHT22;59870;50.106;8.580;2023-03-31T17:00:51;17.00;88.50
11246;DHT22;59870;50.106;8.580;2023-03-31T17:03:19;16.90;88.60
11246;DHT22;59870;50.106;8.580;2023-03-31T17:05:49;16.90;88.60
11246;DHT22;59870;50.106;8.580;2023-03-31T17:08:20;16.80;89.00
11246;DHT22;59870;50.106;8.580;2023-03-31T17:10:53;16.70;89.00
11246;DHT22;59870;50.106;8.580;2023-03-31T17:13:21;16.60;89.20
11246;DHT22;59870;50.106;8.580;2023-03-31T17:15:49;16.60;89.60
11246;DHT22;59870;50.106;8.580;2023-03-31T17:18:22;16.50;89.80
11246;DHT22;59870;50.106;8.580;2023-03-31T17:20:49;16.50;89.70
11246;DHT22;59870;50.106;8.580;2023-03-31T17:23:17;16.50;90.20
11246;DHT22;59870;50.106;8.580;2023-03-31T17:25:52;16.40;90.30
11246;DHT22;59870;50.106;8.580;2023-03-31T17:28:19;16.40;90.30
11246;DHT22;59870;50.106;8.580;2023-03-31T17:30:47;16.50;90.20
11246;DHT22;59870;50.106;8.580;2023-03-31T17:33:16;16.40;90.50
11246;DHT22;59870;50.106;8.580;2023-03-31T17:35:44;16.30;90.60
11246;DHT22;59870;50.106;8.580;2023-03-31T17:38:11;16.90;90.90
11246;DHT22;59870;50.106;8.580;2023-03-31T17:40:41;16.30;90.60
11246;DHT22;59870;50.106;8.580;2023-03-31T17:43:09;16.20;90.60
11246;DHT22;59870;50.106;8.580;2023-03-31T17:45:37;16.20;90.70
11246;DHT22;59870;50.106;8.580;2023-03-31T17:48:04;16.20;90.80
11246;DHT22;59870;50.106;8.580;2023-03-31T17:50:32;16.40;91.20
11246;DHT22;59870;50.106;8.580;2023-03-31T17:53:00;16.20;91.00
11246;DHT22;59870;50.106;8.580;2023-03-31T17:55:27;16.10;91.20
11246;DHT22;59870;50.106;8.580;2023-03-31T17:57:55;16.10;91.40
11246;DHT22;59870;50.106;8.580;2023-03-31T18:00:22;16.10;91.70
11246;DHT22;59870;50.106;8.580;2023-03-31T18:02:50;16.70;92.00
11246;DHT22;59870;50.106;8.580;2023-03-31T18:05:18;16.70;91.80
11246;DHT22;59870;50.106;8.580;2023-03-31T18:07:45;16.00;91.70
11246;DHT22;59870;50.106;8.580;2023-03-31T18:10:13;16.00;91.80
11246;DHT22;59870;50.106;8.580;2023-03-31T18:12:40;16.00;91.80
11246;DHT22;59870;50.106;8.580;2023-03-31T18:15:08;16.60;91.70
11246;DHT22;59870;50.106;8.580;2023-03-31T18:17:36;15.90;91.50
11246;DHT22;59870;50.106;8.580;2023-03-31T18:20:05;16.50;91.90
11246;DHT22;59870;50.106;8.580;2023-03-31T18:22:32;15.90;91.60